createdAt,value
2022-08-20T00:02:10.371Z,9.32
2022-08-20T00:04:39.448Z,9.30
2022-08-20T00:07:06.922Z,10.40
2022-08-20T00:09:36.474Z,9.93
2022-08-20T00:12:07.502Z,11.13
2022-08-20T00:14:35.330Z,10.20
2022-08-20T00:17:03.069Z,9.40
2022-08-20T00:19:29.929Z,9.80
2022-08-20T00:21:58.543Z,9.82
2022-08-20T00:24:26.225Z,8.50
2022-08-20T00:26:53.330Z,8.57
2022-08-20T00:29:20.737Z,9.02
2022-08-20T00:31:50.537Z,9.23
2022-08-20T00:34:17.610Z,9.70
2022-08-20T00:36:44.643Z,9.52
2022-08-20T00:39:11.372Z,9.82
2022-08-20T00:41:38.537Z,9.77
2022-08-20T00:44:18.669Z,9.10
2022-08-20T00:46:46.517Z,10.40
2022-08-20T00:49:20.193Z,9.07
2022-08-20T00:51:53.038Z,8.90
2022-08-20T00:54:29.761Z,9.57
2022-08-20T00:57:08.691Z,9.80
2022-08-20T00:59:40.036Z,10.32
2022-08-20T01:02:11.716Z,10.13
2022-08-20T01:04:39.131Z,10.32
2022-08-20T01:07:07.550Z,10.48
2022-08-20T01:09:57.615Z,10.43
2022-08-20T01:12:25.219Z,11.23
2022-08-20T01:14:52.136Z,12.50
2022-08-20T01:17:23.766Z,13.13
2022-08-20T01:19:59.398Z,13.68
2022-08-20T01:23:04.847Z,11.93
2022-08-20T01:25:37.814Z,11.27
2022-08-20T01:28:05.279Z,12.05
2022-08-20T01:30:33.915Z,14.02
2022-08-20T01:33:02.347Z,12.55
2022-08-20T01:35:29.461Z,14.55
2022-08-20T01:37:56.487Z,14.73
2022-08-20T01:40:48.331Z,12.68
2022-08-20T01:43:15.884Z,13.75
2022-08-20T01:45:44.946Z,16.17
2022-08-20T01:48:15.635Z,14.68
2022-08-20T01:50:49.802Z,14.02
2022-08-20T01:53:30.399Z,14.77
2022-08-20T01:55:57.175Z,14.80
2022-08-20T01:58:23.950Z,20.40
2022-08-20T02:00:50.987Z,17.42
2022-08-20T02:03:17.730Z,17.40
2022-08-20T02:05:45.201Z,17.27
2022-08-20T02:08:12.019Z,19.42
2022-08-20T02:10:38.821Z,18.58
2022-08-20T02:13:05.953Z,17.20
2022-08-20T02:15:37.194Z,17.17
2022-08-20T02:18:10.528Z,19.42
2022-08-20T02:20:39.319Z,19.55
2022-08-20T02:23:09.978Z,18.75
2022-08-20T02:25:40.306Z,19.65
2022-08-20T02:28:10.650Z,19.83
2022-08-20T02:30:42.281Z,21.40
2022-08-20T02:33:12.159Z,22.38
2022-08-20T02:35:41.207Z,21.50
2022-08-20T02:38:08.311Z,21.42
2022-08-20T02:40:36.058Z,19.90
2022-08-20T02:43:04.566Z,22.08
2022-08-20T02:45:42.799Z,24.95
2022-08-20T02:48:20.914Z,23.05
2022-08-20T02:50:53.295Z,21.65
2022-08-20T02:53:20.474Z,21.77
2022-08-20T02:55:47.403Z,23.67
2022-08-20T02:58:15.041Z,26.08
2022-08-20T03:00:42.122Z,22.48
2022-08-20T03:03:11.046Z,23.58
2022-08-20T03:05:40.331Z,24.40
2022-08-20T03:08:10.014Z,22.75
2022-08-20T03:10:38.405Z,27.60
2022-08-20T03:13:05.961Z,23.88
2022-08-20T03:15:34.170Z,24.70
2022-08-20T03:18:01.463Z,28.20
2022-08-20T03:20:29.463Z,22.00
2022-08-20T03:22:57.462Z,26.48
2022-08-20T03:25:24.928Z,25.70
2022-08-20T03:27:54.805Z,26.23
2022-08-20T03:30:23.811Z,23.15
2022-08-20T03:32:50.745Z,25.60
2022-08-20T03:35:19.234Z,25.63
2022-08-20T03:37:48.438Z,24.30
2022-08-20T03:40:24.177Z,26.75
2022-08-20T03:42:52.694Z,27.52
2022-08-20T03:45:21.248Z,26.40
2022-08-20T03:47:49.307Z,25.58
2022-08-20T03:50:23.022Z,30.40
2022-08-20T03:52:51.145Z,28.58
2022-08-20T03:55:18.083Z,27.83
2022-08-20T03:57:50.606Z,28.45
2022-08-20T04:00:25.338Z,28.63
2022-08-20T04:02:52.098Z,27.00
2022-08-20T04:05:19.091Z,26.25
2022-08-20T04:07:45.890Z,26.30
2022-08-20T04:10:13.175Z,28.02
2022-08-20T04:12:41.997Z,24.65
2022-08-20T04:15:19.459Z,26.67
2022-08-20T04:17:50.194Z,29.08
2022-08-20T04:20:23.072Z,27.83
2022-08-20T04:22:59.458Z,26.75
2022-08-20T04:25:29.602Z,29.15
2022-08-20T04:28:00.923Z,29.48
2022-08-20T04:30:28.306Z,26.85
2022-08-20T04:32:56.271Z,28.45
2022-08-20T04:35:24.722Z,26.42
2022-08-20T04:38:03.512Z,28.40
2022-08-20T04:40:49.371Z,27.95
2022-08-20T04:43:16.306Z,27.98
2022-08-20T04:45:44.813Z,26.08
2022-08-20T04:48:14.918Z,29.15
2022-08-20T04:50:44.746Z,27.08
2022-08-20T04:53:13.666Z,31.73
2022-08-20T04:55:43.104Z,30.33
2022-08-20T04:58:38.065Z,28.48
2022-08-20T05:01:10.799Z,32.13
2022-08-20T05:03:39.357Z,30.58
2022-08-20T05:06:08.986Z,30.90
2022-08-20T05:08:38.438Z,27.42
2022-08-20T05:11:34.973Z,31.35
2022-08-20T05:13:53.954Z,28.50
2022-08-20T05:16:21.858Z,28.00
2022-08-20T05:18:52.158Z,30.95
2022-08-20T05:21:21.278Z,28.02
2022-08-20T05:23:49.374Z,28.45
2022-08-20T05:26:17.079Z,31.27
2022-08-20T05:28:52.772Z,26.45
2022-08-20T05:31:32.294Z,27.10
2022-08-20T05:34:10.291Z,26.17
2022-08-20T05:36:40.178Z,26.42
2022-08-20T05:39:08.884Z,27.08
2022-08-20T05:41:36.378Z,24.45
2022-08-20T05:44:04.388Z,27.40
2022-08-20T05:46:32.023Z,28.42
2022-08-20T05:49:01.623Z,28.73
2022-08-20T05:51:29.802Z,24.63
2022-08-20T05:53:59.133Z,24.25
2022-08-20T05:56:26.914Z,24.85
2022-08-20T05:58:55.318Z,26.10
2022-08-20T06:01:22.438Z,23.00
2022-08-20T06:04:07.550Z,24.38
2022-08-20T06:06:45.596Z,24.63
2022-08-20T06:09:15.734Z,22.33
2022-08-20T06:11:42.685Z,24.23
2022-08-20T06:14:10.028Z,23.42
2022-08-20T06:16:37.611Z,20.80
2022-08-20T06:19:05.431Z,23.35
2022-08-20T06:21:32.301Z,23.27
2022-08-20T06:24:01.531Z,23.08
2022-08-20T06:26:30.288Z,22.30
2022-08-20T06:29:02.407Z,22.88
2022-08-20T06:31:29.316Z,22.88
2022-08-20T06:33:56.435Z,23.67
2022-08-20T06:36:23.365Z,26.52
2022-08-20T06:38:50.183Z,22.70
2022-08-20T06:41:17.371Z,19.45
2022-08-20T06:43:44.138Z,23.45
2022-08-20T06:46:11.016Z,24.83
2022-08-20T06:48:38.214Z,23.08
2022-08-20T06:51:06.794Z,23.27
2022-08-20T06:53:33.907Z,22.52
2022-08-20T06:56:00.953Z,22.05
2022-08-20T06:58:37.159Z,24.08
2022-08-20T07:01:11.411Z,21.55
2022-08-20T07:03:55.706Z,23.55
2022-08-20T07:06:25.996Z,24.05
2022-08-20T07:08:54.142Z,22.92
2022-08-20T07:11:26.657Z,22.58
2022-08-20T07:13:56.830Z,21.25
2022-08-20T07:16:24.031Z,22.33
2022-08-20T07:18:50.813Z,23.00
2022-08-20T07:21:17.651Z,21.08
2022-08-20T07:23:44.519Z,21.38
2022-08-20T07:26:12.960Z,21.88
2022-08-20T07:28:39.827Z,20.73
2022-08-20T07:31:25.224Z,21.83
2022-08-20T07:33:53.918Z,22.65
2022-08-20T07:36:20.784Z,22.85
2022-08-20T07:38:48.257Z,25.40
2022-08-20T07:41:15.307Z,23.85
2022-08-20T07:43:45.912Z,28.63
2022-08-20T07:46:15.754Z,24.27
2022-08-20T07:48:49.724Z,24.13
2022-08-20T07:51:19.235Z,24.10
2022-08-20T07:53:47.485Z,24.10
2022-08-20T07:56:21.394Z,23.50
2022-08-20T07:58:53.320Z,24.30
2022-08-20T08:01:29.666Z,23.88
2022-08-20T08:03:57.848Z,25.40
2022-08-20T08:06:29.990Z,22.73
2022-08-20T08:09:24.082Z,24.15
2022-08-20T08:11:51.069Z,21.58
2022-08-20T08:14:26.767Z,23.75
2022-08-20T08:16:58.558Z,23.67
2022-08-20T08:19:28.745Z,22.77
2022-08-20T08:21:58.719Z,21.95
2022-08-20T08:24:28.478Z,21.88
2022-08-20T08:26:55.640Z,25.23
2022-08-20T08:29:27.631Z,22.52
2022-08-20T08:31:54.455Z,24.52
2022-08-20T08:34:22.378Z,23.35
2022-08-20T08:36:50.973Z,22.80
2022-08-20T08:39:18.797Z,21.95
2022-08-20T08:41:49.999Z,26.30
2022-08-20T08:44:27.900Z,20.73
2022-08-20T08:46:59.350Z,22.05
2022-08-20T08:49:37.863Z,24.08
2022-08-20T08:52:11.743Z,23.60
2022-08-20T08:54:45.974Z,23.27
2022-08-20T08:57:13.003Z,32.97
2022-08-20T08:59:47.420Z,22.42
2022-08-20T09:02:31.054Z,25.20
2022-08-20T09:05:01.913Z,23.33
2022-08-20T09:07:33.119Z,21.95
2022-08-20T09:10:02.430Z,21.35
2022-08-20T09:12:29.450Z,23.52
2022-08-20T09:14:56.629Z,24.20
2022-08-20T09:17:24.103Z,23.33
2022-08-20T09:19:52.364Z,20.10
2022-08-20T09:22:22.429Z,19.95
2022-08-20T09:24:50.499Z,18.90
2022-08-20T09:27:18.454Z,20.10
2022-08-20T09:29:46.183Z,20.45
2022-08-20T09:32:24.519Z,22.05
2022-08-20T09:34:59.345Z,21.85
2022-08-20T09:37:33.603Z,20.42
2022-08-20T09:40:04.999Z,19.08
2022-08-20T09:42:40.250Z,21.15
2022-08-20T09:45:10.964Z,21.88
2022-08-20T09:47:48.734Z,20.38
2022-08-20T09:50:25.127Z,20.95
2022-08-20T09:52:54.438Z,23.80
2022-08-20T09:55:24.903Z,26.15
2022-08-20T09:57:52.250Z,22.58
2022-08-20T10:00:20.172Z,26.58
2022-08-20T10:02:47.855Z,22.15
2022-08-20T10:05:14.957Z,23.42
2022-08-20T10:07:42.558Z,22.02
2022-08-20T10:10:12.210Z,24.17
2022-08-20T10:12:39.344Z,26.17
2022-08-20T10:15:06.889Z,21.75
2022-08-20T10:17:38.812Z,21.10
2022-08-20T10:20:06.815Z,23.58
2022-08-20T10:22:34.234Z,23.05
2022-08-20T10:25:01.159Z,23.40
2022-08-20T10:27:27.991Z,20.70
2022-08-20T10:29:55.072Z,22.88
2022-08-20T10:32:21.830Z,19.45
2022-08-20T10:34:49.332Z,21.45
2022-08-20T10:37:18.991Z,20.17
2022-08-20T10:39:46.325Z,20.98
2022-08-20T10:42:13.869Z,20.77
2022-08-20T10:44:40.816Z,19.80
2022-08-20T10:47:34.038Z,20.50
2022-08-20T10:50:04.289Z,21.42
2022-08-20T10:52:31.124Z,20.05
2022-08-20T10:54:58.221Z,20.35
2022-08-20T10:57:28.758Z,20.25
2022-08-20T10:59:57.417Z,21.63
2022-08-20T11:02:25.555Z,21.33
2022-08-20T11:04:53.355Z,20.70
2022-08-20T11:07:50.757Z,22.33
2022-08-20T11:10:24.007Z,19.42
2022-08-20T11:12:50.932Z,20.00
2022-08-20T11:15:18.164Z,19.45
2022-08-20T11:17:46.026Z,24.23
2022-08-20T11:20:15.360Z,21.15
2022-08-20T11:22:42.165Z,21.67
2022-08-20T11:25:09.477Z,21.90
2022-08-20T11:27:39.748Z,24.65
2022-08-20T11:30:10.389Z,23.17
2022-08-20T11:32:37.525Z,21.40
2022-08-20T11:35:19.203Z,23.83
2022-08-20T11:37:54.224Z,22.73
2022-08-20T11:40:21.895Z,23.58
2022-08-20T11:43:13.113Z,21.42
2022-08-20T11:45:37.685Z,19.10
2022-08-20T11:48:05.674Z,18.23
2022-08-20T11:50:32.577Z,21.40
2022-08-20T11:53:01.088Z,20.30
2022-08-20T11:55:30.534Z,20.40
2022-08-20T11:57:59.923Z,23.77
2022-08-20T12:00:32.801Z,22.38
2022-08-20T12:03:02.440Z,23.73
2022-08-20T12:05:32.418Z,21.75
2022-08-20T12:08:01.522Z,21.58
2022-08-20T12:10:29.816Z,21.08
2022-08-20T12:12:57.098Z,24.95
2022-08-20T12:15:26.738Z,25.98
2022-08-20T12:17:54.126Z,20.23
2022-08-20T12:20:21.147Z,20.30
2022-08-20T12:22:47.960Z,14.77
2022-08-20T12:25:15.507Z,14.30
2022-08-20T12:27:42.830Z,12.43
2022-08-20T12:30:13.307Z,15.07
2022-08-20T12:32:41.250Z,13.65
2022-08-20T12:35:09.288Z,13.98
2022-08-20T12:37:36.919Z,14.45
2022-08-20T12:40:08.198Z,20.58
2022-08-20T12:42:35.190Z,15.65
2022-08-20T12:45:01.986Z,14.38
2022-08-20T12:47:32.180Z,19.60
2022-08-20T12:50:08.086Z,15.43
2022-08-20T12:52:35.255Z,15.68
2022-08-20T12:55:04.006Z,10.98
2022-08-20T12:57:59.513Z,16.75
2022-08-20T13:00:38.519Z,14.48
2022-08-20T13:03:07.194Z,11.80
2022-08-20T13:05:35.481Z,10.85
2022-08-20T13:08:03.123Z,10.93
2022-08-20T13:10:34.059Z,12.60
2022-08-20T13:13:04.990Z,11.48
2022-08-20T13:15:32.936Z,8.85
2022-08-20T13:18:02.002Z,10.25
2022-08-20T13:20:31.743Z,10.07
2022-08-20T13:23:03.699Z,9.30
2022-08-20T13:25:31.562Z,11.10
2022-08-20T13:28:00.377Z,8.77
2022-08-20T13:30:27.740Z,8.43
2022-08-20T13:32:54.645Z,11.55
2022-08-20T13:35:21.811Z,10.15
2022-08-20T13:37:49.720Z,8.88
2022-08-20T13:40:17.428Z,8.77
2022-08-20T13:42:44.297Z,10.38
2022-08-20T13:45:11.475Z,12.05
2022-08-20T13:47:39.803Z,8.82
2022-08-20T13:50:15.517Z,8.00
2022-08-20T13:52:43.030Z,11.45
2022-08-20T13:55:11.937Z,10.95
2022-08-20T13:57:38.913Z,11.23
2022-08-20T14:00:10.675Z,16.40
2022-08-20T14:02:37.674Z,10.38
2022-08-20T14:05:04.713Z,7.60
2022-08-20T14:07:32.932Z,8.07
2022-08-20T14:10:02.915Z,7.47
2022-08-20T14:12:30.622Z,7.78
2022-08-20T14:14:57.798Z,8.38
2022-08-20T14:17:30.882Z,6.90
2022-08-20T14:20:07.090Z,5.85
2022-08-20T14:22:36.626Z,5.68
2022-08-20T14:25:08.420Z,6.05
2022-08-20T14:27:36.225Z,5.88
2022-08-20T14:30:11.944Z,7.80
2022-08-20T14:32:38.922Z,9.82
2022-08-20T14:35:06.939Z,7.43
2022-08-20T14:37:38.170Z,7.75
2022-08-20T14:40:09.286Z,5.35
2022-08-20T14:42:36.748Z,8.93
2022-08-20T14:45:06.551Z,6.28
2022-08-20T14:47:36.498Z,6.95
2022-08-20T14:50:10.375Z,8.63
2022-08-20T14:52:38.007Z,6.43
2022-08-20T14:55:07.862Z,9.63
2022-08-20T14:57:35.128Z,4.78
2022-08-20T15:00:02.156Z,4.57
2022-08-20T15:02:29.198Z,3.78
2022-08-20T15:04:56.123Z,3.80
2022-08-20T15:07:29.471Z,5.30
2022-08-20T15:09:57.576Z,3.83
2022-08-20T15:12:24.844Z,3.90
2022-08-20T15:14:51.631Z,3.47
2022-08-20T15:17:24.074Z,3.80
2022-08-20T15:19:51.449Z,5.15
2022-08-20T15:22:19.424Z,3.75
2022-08-20T15:24:46.375Z,4.07
2022-08-20T15:27:22.612Z,5.60
2022-08-20T15:29:51.537Z,4.05
2022-08-20T15:32:19.791Z,4.90
2022-08-20T15:34:47.673Z,6.95
2022-08-20T15:37:17.942Z,4.63
2022-08-20T15:39:45.497Z,4.20
2022-08-20T15:42:13.229Z,7.45
2022-08-20T15:44:41.494Z,3.72
2022-08-20T15:47:14.316Z,3.45
2022-08-20T15:49:41.840Z,6.35
2022-08-20T15:52:08.934Z,7.25
2022-08-20T15:54:36.620Z,7.50
2022-08-20T15:57:12.017Z,7.40
2022-08-20T15:59:57.203Z,3.67
2022-08-20T16:03:01.215Z,3.17
2022-08-20T16:05:37.059Z,1.77
2022-08-20T16:08:21.987Z,4.05
2022-08-20T16:11:04.002Z,1.67
2022-08-20T16:13:46.127Z,3.67
2022-08-20T16:16:43.401Z,1.27
2022-08-20T16:19:18.472Z,3.15
2022-08-20T16:21:48.095Z,3.22
2022-08-20T16:24:15.818Z,1.30
2022-08-20T16:27:07.359Z,1.33
2022-08-20T16:29:45.679Z,6.07
2022-08-20T16:32:31.037Z,1.05
2022-08-20T16:35:07.877Z,1.45
2022-08-20T16:37:41.440Z,3.85
2022-08-20T16:40:35.339Z,1.70
2022-08-20T16:43:08.442Z,2.97
2022-08-20T16:45:50.122Z,2.30
2022-08-20T16:48:18.683Z,3.35
2022-08-20T16:51:15.944Z,3.40
2022-08-20T16:53:43.052Z,3.97
2022-08-20T16:56:09.823Z,2.65
2022-08-20T16:58:36.582Z,2.00
2022-08-20T17:01:06.233Z,2.20
2022-08-20T17:03:39.834Z,4.78
2022-08-20T17:06:21.689Z,5.40
2022-08-20T17:08:51.344Z,5.85
2022-08-20T17:11:33.833Z,4.88
2022-08-20T17:14:19.659Z,2.75
2022-08-20T17:16:49.775Z,6.25
2022-08-20T17:19:28.761Z,4.85
2022-08-20T17:22:07.523Z,1.70
2022-08-20T17:24:35.338Z,3.53
2022-08-20T17:27:10.401Z,3.50
2022-08-20T17:29:53.106Z,4.28
2022-08-20T17:32:26.960Z,6.28
2022-08-20T17:34:58.018Z,6.53
2022-08-20T17:37:33.376Z,4.60
2022-08-20T17:40:09.446Z,4.68
2022-08-20T17:42:48.379Z,3.67
2022-08-20T17:45:24.250Z,5.15
2022-08-20T17:47:52.926Z,4.93
2022-08-20T17:50:24.754Z,5.10
2022-08-20T17:52:56.341Z,4.28
2022-08-20T17:55:23.588Z,7.90
2022-08-20T17:57:56.309Z,2.72
2022-08-20T18:00:28.496Z,3.45
2022-08-20T18:03:00.824Z,7.82
2022-08-20T18:05:32.456Z,4.68
2022-08-20T18:08:08.643Z,6.70
2022-08-20T18:10:47.502Z,10.20
2022-08-20T18:13:23.990Z,7.50
2022-08-20T18:15:57.061Z,4.15
2022-08-20T18:18:56.410Z,6.75
2022-08-20T18:21:50.400Z,6.68
2022-08-20T18:24:29.931Z,4.82
2022-08-20T18:27:02.469Z,5.20
2022-08-20T18:29:37.322Z,6.22
2022-08-20T18:32:35.503Z,4.75
2022-08-20T18:35:18.972Z,4.30
2022-08-20T18:37:45.955Z,4.07
2022-08-20T18:40:29.341Z,4.75
2022-08-20T18:42:59.396Z,4.78
2022-08-20T18:45:36.461Z,7.15
2022-08-20T18:48:05.446Z,4.10
2022-08-20T18:50:46.387Z,7.63
2022-08-20T18:53:13.273Z,5.38
2022-08-20T18:55:43.767Z,8.20
2022-08-20T18:58:48.806Z,3.25
2022-08-20T19:01:16.186Z,8.25
2022-08-20T19:03:47.633Z,2.63
2022-08-20T19:06:33.259Z,3.78
2022-08-20T19:09:33.790Z,2.67
2022-08-20T19:12:06.486Z,4.57
2022-08-20T19:15:00.865Z,3.53
2022-08-20T19:17:54.025Z,3.00
2022-08-20T19:20:24.975Z,5.10
2022-08-20T19:22:54.086Z,3.58
2022-08-20T19:25:50.697Z,4.00
2022-08-20T19:28:45.215Z,3.30
2022-08-20T19:31:16.053Z,5.97
2022-08-20T19:33:47.191Z,6.00
2022-08-20T19:36:21.082Z,5.85
2022-08-20T19:38:52.922Z,4.30
2022-08-20T19:41:31.440Z,8.32
2022-08-20T19:44:00.330Z,7.70
2022-08-20T19:46:38.356Z,12.25
2022-08-20T19:49:27.730Z,6.45
2022-08-20T19:52:20.905Z,5.45
2022-08-20T19:54:53.708Z,4.68
2022-08-20T19:57:23.094Z,3.30
2022-08-20T19:59:57.486Z,4.30
2022-08-20T20:02:28.320Z,4.38
2022-08-20T20:04:57.832Z,4.72
2022-08-20T20:07:34.466Z,4.15
2022-08-20T20:10:03.474Z,3.75
2022-08-20T20:12:33.159Z,3.75
2022-08-20T20:15:00.690Z,4.43
2022-08-20T20:17:32.966Z,6.65
2022-08-20T20:20:14.646Z,5.35
2022-08-20T20:22:56.852Z,6.80
2022-08-20T20:25:38.597Z,5.78
2022-08-20T20:28:13.507Z,3.13
2022-08-20T20:30:41.268Z,3.13
2022-08-20T20:33:16.647Z,2.95
2022-08-20T20:35:44.344Z,4.00
2022-08-20T20:38:24.118Z,4.22
2022-08-20T20:40:54.850Z,5.82
2022-08-20T20:43:35.499Z,3.50
2022-08-20T20:46:29.007Z,3.22
2022-08-20T20:49:22.207Z,3.33
2022-08-20T20:51:56.688Z,3.17
2022-08-20T20:54:42.259Z,7.28
2022-08-20T20:57:38.082Z,3.15
2022-08-20T21:00:11.729Z,3.53
2022-08-20T21:02:38.728Z,5.05
2022-08-20T21:05:06.507Z,2.97
2022-08-20T21:07:33.369Z,4.07
2022-08-20T21:10:00.203Z,3.33
2022-08-20T21:12:26.943Z,10.63
2022-08-20T21:14:54.388Z,10.43
2022-08-20T21:17:23.067Z,6.20
2022-08-20T21:19:51.244Z,6.57
2022-08-20T21:22:19.485Z,4.72
2022-08-20T21:24:48.589Z,7.00
2022-08-20T21:27:15.973Z,3.20
2022-08-20T21:29:42.790Z,4.00
2022-08-20T21:32:12.356Z,4.25
2022-08-20T21:34:40.258Z,3.50
2022-08-20T21:37:07.181Z,4.40
2022-08-20T21:39:34.115Z,5.72
2022-08-20T21:42:03.764Z,5.00
2022-08-20T21:44:32.294Z,2.40
2022-08-20T21:47:00.200Z,2.72
2022-08-20T21:49:29.138Z,4.45
2022-08-20T21:51:56.331Z,2.33
2022-08-20T21:54:24.374Z,2.80
2022-08-20T21:56:56.702Z,3.28
2022-08-20T21:59:25.279Z,2.92
2022-08-20T22:01:52.828Z,5.38
2022-08-20T22:04:19.754Z,2.60
2022-08-20T22:06:47.306Z,3.03
2022-08-20T22:09:15.084Z,4.40
2022-08-20T22:11:42.025Z,4.45
2022-08-20T22:14:10.794Z,3.22
2022-08-20T22:16:37.627Z,2.55
2022-08-20T22:19:13.989Z,3.85
2022-08-20T22:21:42.843Z,3.40
2022-08-20T22:24:11.581Z,4.45
2022-08-20T22:26:41.359Z,2.67
2022-08-20T22:29:10.804Z,4.10
2022-08-20T22:31:40.895Z,4.78
2022-08-20T22:34:10.868Z,6.70
2022-08-20T22:36:37.794Z,15.77
2022-08-20T22:39:05.734Z,7.68
2022-08-20T22:41:32.954Z,6.63
2022-08-20T22:43:59.795Z,9.40
2022-08-20T22:46:30.722Z,6.82
2022-08-20T22:48:57.959Z,10.68
2022-08-20T22:51:30.166Z,7.95
2022-08-20T22:53:58.433Z,7.13
2022-08-20T22:56:26.303Z,6.75
2022-08-20T22:58:53.243Z,4.68
2022-08-20T23:01:21.144Z,5.93
2022-08-20T23:03:48.037Z,5.90
2022-08-20T23:06:14.883Z,6.75
2022-08-20T23:08:42.435Z,6.75
2022-08-20T23:11:09.443Z,5.13
2022-08-20T23:13:37.469Z,6.88
2022-08-20T23:16:06.871Z,4.80
2022-08-20T23:18:33.803Z,3.53
2022-08-20T23:21:01.087Z,2.60
2022-08-20T23:23:28.001Z,4.53
2022-08-20T23:25:55.438Z,3.97
2022-08-20T23:28:25.433Z,3.10
2022-08-20T23:30:52.794Z,3.15
2022-08-20T23:33:19.795Z,2.03
2022-08-20T23:35:47.158Z,2.55
2022-08-20T23:38:14.573Z,2.10
2022-08-20T23:40:43.152Z,3.78
2022-08-20T23:43:10.204Z,2.72
2022-08-20T23:45:39.732Z,3.30
2022-08-20T23:48:07.884Z,2.53
2022-08-20T23:50:35.280Z,1.90
2022-08-20T23:53:02.349Z,3.97
2022-08-20T23:55:29.352Z,4.40
2022-08-20T23:57:56.596Z,1.88
